Time,TemperatureF,DewpointF,PressureIn,WindDirection,WindDirectionDegrees,WindSpeedMPH,WindSpeedGustMPH,Humidity,HourlyPrecipIn,Conditions,Clouds,dailyrainin,SoftwareType,DateUTC
2013-02-08 00:02:00,64.0,-99.9,29.97,East,88,2.0,4.0,-999,-99.99,,,-99.99,,2013-02-08 06:02:00,
2013-02-08 00:11:00,64.0,-99.9,29.98,ENE,73,2.0,3.0,-999,-99.99,,,-99.99,,2013-02-08 06:11:00,
2013-02-08 00:22:00,65.0,-99.9,29.98,ENE,63,3.0,3.0,-999,-99.99,,,-99.99,,2013-02-08 06:22:00,
2013-02-08 00:32:00,65.0,-99.9,29.98,NNE,21,2.0,3.0,-999,-99.99,,,-99.99,,2013-02-08 06:32:00,
2013-02-08 00:42:00,65.0,-99.9,29.98,North,8,3.0,3.0,-999,-99.99,,,-99.99,,2013-02-08 06:42:00,
2013-02-08 00:52:00,65.0,-99.9,29.98,NNE,16,3.0,3.0,-999,-99.99,,,-99.99,,2013-02-08 06:52:00,
2013-02-08 01:02:00,65.0,-99.9,29.98,NNE,29,4.0,5.0,-999,-99.99,,,-99.99,,2013-02-08 07:02:00,
2013-02-08 01:12:00,65.0,-99.9,29.99,NNE,21,4.0,5.0,-999,-99.99,,,-99.99,,2013-02-08 07:12:00,
2013-02-08 01:22:00,65.0,-99.9,29.99,NNE,23,2.0,3.0,-999,-99.99,,,-99.99,,2013-02-08 07:22:00,
2013-02-08 01:32:00,65.0,-99.9,29.99,NNE,33,3.0,3.0,-999,-99.99,,,-99.99,,2013-02-08 07:32:00,
2013-02-08 01:42:00,65.0,-99.9,29.99,NNE,30,2.0,3.0,-999,-99.99,,,-99.99,,2013-02-08 07:42:00,
2013-02-08 01:52:00,65.0,-99.9,30.00,North,358,4.0,4.0,-999,-99.99,,,-99.99,,2013-02-08 07:52:00,
2013-02-08 02:01:00,65.0,-99.9,30.00,North,5,3.0,4.0,-999,-99.99,,,-99.99,,2013-02-08 08:01:00,
2013-02-08 02:12:00,64.0,-99.9,30.00,North,356,4.0,4.0,-999,-99.99,,,-99.99,,2013-02-08 08:12:00,
2013-02-08 02:22:00,64.0,-99.9,30.00,NNW,336,5.0,5.0,-999,-99.99,,,-99.99,,2013-02-08 08:22:00,
2013-02-08 02:32:00,64.0,-99.9,30.00,NNW,343,4.0,5.0,-999,-99.99,,,-99.99,,2013-02-08 08:32:00,
2013-02-08 02:42:00,63.0,-99.9,30.01,NNW,336,4.0,4.0,-999,-99.99,,,-99.99,,2013-02-08 08:42:00,
2013-02-08 02:52:00,64.0,-99.9,30.01,NNW,334,9.0,9.0,-999,-99.99,,,-99.99,,2013-02-08 08:52:00,
2013-02-08 03:03:00,64.0,-99.9,30.00,NNW,328,9.0,10.0,-999,-99.99,,,-99.99,,2013-02-08 09:03:00,
2013-02-08 03:11:00,64.0,-99.9,30.00,NNW,331,8.0,10.0,-999,-99.99,,,-99.99,,2013-02-08 09:11:00,
2013-02-08 03:22:00,65.0,-99.9,30.01,NW,324,8.0,11.0,-999,-99.99,,,-99.99,,2013-02-08 09:22:00,
2013-02-08 03:32:00,65.0,-99.9,30.01,NW,319,7.0,10.0,-999,-99.99,,,-99.99,,2013-02-08 09:32:00,
2013-02-08 03:42:00,65.0,-99.9,30.02,NW,318,8.0,10.0,-999,-99.99,,,-99.99,,2013-02-08 09:42:00,
2013-02-08 03:52:00,66.0,-99.9,30.02,NW,317,12.0,14.0,-999,-99.99,,,-99.99,,2013-02-08 09:52:00,
2013-02-08 04:01:00,65.0,-99.9,30.03,NW,323,16.0,19.0,-999,-99.99,,,-99.99,,2013-02-08 10:01:00,
2013-02-08 04:12:00,64.0,-99.9,30.03,NW,325,11.0,19.0,-999,-99.99,,,-99.99,,2013-02-08 10:12:00,
2013-02-08 04:22:00,64.0,-99.9,30.03,NNW,336,12.0,14.0,-999,-99.99,,,-99.99,,2013-02-08 10:22:00,
2013-02-08 04:32:00,64.0,-99.9,30.04,North,349,15.0,18.0,-999,-99.99,,,-99.99,,2013-02-08 10:32:00,
2013-02-08 04:42:00,64.0,-99.9,30.04,North,358,18.0,21.0,-999,-99.99,,,-99.99,,2013-02-08 10:42:00,
2013-02-08 04:52:00,65.0,-99.9,30.04,North,4,18.0,21.0,-999,-99.99,,,-99.99,,2013-02-08 10:52:00,
2013-02-08 05:02:00,65.0,-99.9,30.04,North,5,16.0,18.0,-999,-99.99,,,-99.99,,2013-02-08 11:02:00,
2013-02-08 05:11:00,64.0,-99.9,30.05,North,6,17.0,19.0,-999,-99.99,,,-99.99,,2013-02-08 11:11:00,
2013-02-08 05:22:00,64.0,-99.9,30.05,North,6,16.0,19.0,-999,-99.99,,,-99.99,,2013-02-08 11:22:00,
2013-02-08 05:32:00,63.0,-99.9,30.06,North,6,21.0,24.0,-999,-99.99,,,-99.99,,2013-02-08 11:32:00,
2013-02-08 05:42:00,64.0,-99.9,30.06,North,5,21.0,26.0,-999,-99.99,,,-99.99,,2013-02-08 11:42:00,
2013-02-08 05:53:00,63.0,-99.9,30.06,North,6,19.0,22.0,-999,-99.99,,,-99.99,,2013-02-08 11:53:00,
2013-02-08 06:02:00,63.0,-99.9,30.08,North,4,19.0,22.0,-999,-99.99,,,-99.99,,2013-02-08 12:02:00,
2013-02-08 06:11:00,63.0,-99.9,30.08,North,4,19.0,22.0,-999,-99.99,,,-99.99,,2013-02-08 12:11:00,
2013-02-08 06:22:00,62.0,-99.9,30.09,North,1,20.0,23.0,-999,-99.99,,,-99.99,,2013-02-08 12:22:00,
2013-02-08 06:33:00,62.0,-99.9,30.10,North,2,21.0,24.0,-999,-99.99,,,-99.99,,2013-02-08 12:33:00,
2013-02-08 06:42:00,62.0,-99.9,30.09,North,360,19.0,22.0,-999,-99.99,,,-99.99,,2013-02-08 12:42:00,
2013-02-08 06:53:00,61.0,-99.9,30.10,North,6,21.0,25.0,-999,-99.99,,,-99.99,,2013-02-08 12:53:00,
2013-02-08 07:02:00,61.0,-99.9,30.09,North,8,20.0,24.0,-999,-99.99,,,-99.99,,2013-02-08 13:02:00,
2013-02-08 07:12:00,61.0,-99.9,30.10,North,2,17.0,21.0,-999,-99.99,,,-99.99,,2013-02-08 13:12:00,
2013-02-08 07:22:00,60.0,-99.9,30.11,North,3,15.0,18.0,-999,-99.99,,,-99.99,,2013-02-08 13:22:00,
2013-02-08 07:33:00,60.0,-99.9,30.12,North,4,17.0,19.0,-999,-99.99,,,-99.99,,2013-02-08 13:33:00,
2013-02-08 07:43:00,60.0,-99.9,30.11,North,3,16.0,19.0,-999,-99.99,,,-99.99,,2013-02-08 13:43:00,
2013-02-08 07:52:00,60.0,-99.9,30.12,North,5,17.0,19.0,-999,-99.99,,,-99.99,,2013-02-08 13:52:00,
2013-02-08 08:02:00,59.0,-99.9,30.12,North,3,17.0,19.0,-999,-99.99,,,-99.99,,2013-02-08 14:02:00,
2013-02-08 08:11:00,59.0,-99.9,30.13,North,7,19.0,21.0,-999,-99.99,,,-99.99,,2013-02-08 14:11:00,
2013-02-08 08:22:00,60.0,-99.9,30.13,North,6,22.0,26.0,-999,-99.99,,,-99.99,,2013-02-08 14:22:00,
2013-02-08 08:33:00,59.0,-99.9,30.14,North,4,21.0,25.0,-999,-99.99,,,-99.99,,2013-02-08 14:33:00,
2013-02-08 08:42:00,59.0,-99.9,30.14,North,6,18.0,23.0,-999,-99.99,,,-99.99,,2013-02-08 14:42:00,
2013-02-08 08:52:00,59.0,-99.9,30.15,North,5,22.0,26.0,-999,-99.99,,,-99.99,,2013-02-08 14:52:00,
2013-02-08 09:02:00,59.0,-99.9,30.15,North,5,22.0,25.0,-999,-99.99,,,-99.99,,2013-02-08 15:02:00,
2013-02-08 09:12:00,59.0,-99.9,30.16,North,6,21.0,25.0,-999,-99.99,,,-99.99,,2013-02-08 15:12:00,
2013-02-08 09:22:00,59.0,-99.9,30.15,North,3,23.0,26.0,-999,-99.99,,,-99.99,,2013-02-08 15:22:00,
2013-02-08 09:32:00,59.0,-99.9,30.15,North,6,20.0,24.0,-999,-99.99,,,-99.99,,2013-02-08 15:32:00,
2013-02-08 09:42:00,58.0,-99.9,30.16,North,4,21.0,24.0,-999,-99.99,,,-99.99,,2013-02-08 15:42:00,
2013-02-08 09:52:00,59.0,-99.9,30.17,North,5,21.0,25.0,-999,-99.99,,,-99.99,,2013-02-08 15:52:00,
2013-02-08 10:02:00,59.0,-99.9,30.16,North,9,23.0,26.0,-999,-99.99,,,-99.99,,2013-02-08 16:02:00,
2013-02-08 10:12:00,59.0,-99.9,30.16,NNE,14,22.0,26.0,-999,-99.99,,,-99.99,,2013-02-08 16:12:00,
2013-02-08 10:22:00,59.0,-99.9,30.16,North,11,22.0,25.0,-999,-99.99,,,-99.99,,2013-02-08 16:22:00,
2013-02-08 10:33:00,59.0,-99.9,30.16,NNE,12,23.0,25.0,-999,-99.99,,,-99.99,,2013-02-08 16:33:00,
2013-02-08 10:42:00,59.0,-99.9,30.16,NNE,16,24.0,26.0,-999,-99.99,,,-99.99,,2013-02-08 16:42:00,
2013-02-08 10:52:00,59.0,-99.9,30.15,NNE,15,25.0,26.0,-999,-99.99,,,-99.99,,2013-02-08 16:52:00,
2013-02-08 11:04:00,60.0,-99.9,30.16,NNE,16,23.0,26.0,-999,-99.99,,,-99.99,,2013-02-08 17:04:00,
2013-02-08 11:13:00,60.0,-99.9,30.16,NNE,14,22.0,25.0,-999,-99.99,,,-99.99,,2013-02-08 17:13:00,
2013-02-08 11:23:00,60.0,-99.9,30.15,NNE,16,23.0,25.0,-999,-99.99,,,-99.99,,2013-02-08 17:23:00,
2013-02-08 11:33:00,60.0,-99.9,30.15,NNE,15,22.0,25.0,-999,-99.99,,,-99.99,,2013-02-08 17:33:00,
2013-02-08 11:42:00,60.0,-99.9,30.15,NNE,12,23.0,25.0,-999,-99.99,,,-99.99,,2013-02-08 17:42:00,
2013-02-08 11:53:00,60.0,-99.9,30.15,NNE,14,18.0,23.0,-999,-99.99,,,-99.99,,2013-02-08 17:53:00,
2013-02-08 12:03:00,61.0,-99.9,30.16,North,5,17.0,20.0,-999,-99.99,,,-99.99,,2013-02-08 18:03:00,
2013-02-08 12:12:00,61.0,-99.9,30.15,North,353,17.0,21.0,-999,-99.99,,,-99.99,,2013-02-08 18:12:00,
2013-02-08 12:25:00,62.0,-99.9,30.15,NNW,347,18.0,22.0,-999,-99.99,,,-99.99,,2013-02-08 18:25:00,
2013-02-08 12:36:00,62.0,-99.9,30.15,North,357,16.0,19.0,-999,-99.99,,,-99.99,,2013-02-08 18:36:00,
2013-02-08 12:44:00,62.0,-99.9,30.15,NNW,346,15.0,19.0,-999,-99.99,,,-99.99,,2013-02-08 18:44:00,
2013-02-08 12:53:00,61.0,-99.9,30.15,North,350,14.0,16.0,-999,-99.99,,,-99.99,,2013-02-08 18:53:00,
2013-02-08 13:02:00,62.0,-99.9,30.14,North,1,13.0,17.0,-999,-99.99,,,-99.99,,2013-02-08 19:02:00,
2013-02-08 13:12:00,62.0,-99.9,30.14,North,353,13.0,15.0,-999,-99.99,,,-99.99,,2013-02-08 19:12:00,
2013-02-08 13:22:00,63.0,-99.9,30.14,NNW,345,14.0,16.0,-999,-99.99,,,-99.99,,2013-02-08 19:22:00,
2013-02-08 13:33:00,63.0,-99.9,30.13,North,4,13.0,16.0,-999,-99.99,,,-99.99,,2013-02-08 19:33:00,
2013-02-08 13:42:00,63.0,-99.9,30.13,North,9,12.0,16.0,-999,-99.99,,,-99.99,,2013-02-08 19:42:00,
2013-02-08 13:52:00,64.0,-99.9,30.12,North,11,7.0,11.0,-999,-99.99,,,-99.99,,2013-02-08 19:52:00,
2013-02-08 14:02:00,64.0,-99.9,30.12,NE,43,9.0,13.0,-999,-99.99,,,-99.99,,2013-02-08 20:02:00,
2013-02-08 14:12:00,63.0,-99.9,30.11,NE,44,9.0,11.0,-999,-99.99,,,-99.99,,2013-02-08 20:12:00,
2013-02-08 14:22:00,63.0,-99.9,30.11,NE,47,8.0,9.0,-999,-99.99,,,-99.99,,2013-02-08 20:22:00,
2013-02-08 14:32:00,63.0,-99.9,30.11,ENE,59,8.0,9.0,-999,-99.99,,,-99.99,,2013-02-08 20:32:00,
2013-02-08 14:42:00,63.0,-99.9,30.10,ENE,57,8.0,9.0,-999,-99.99,,,-99.99,,2013-02-08 20:42:00,
2013-02-08 14:53:00,63.0,-99.9,30.11,ENE,58,8.0,9.0,-999,-99.99,,,-99.99,,2013-02-08 20:53:00,
2013-02-08 15:02:00,63.0,-99.9,30.10,NE,53,7.0,8.0,-999,-99.99,,,-99.99,,2013-02-08 21:02:00,
2013-02-08 15:12:00,63.0,-99.9,30.10,ENE,61,8.0,9.0,-999,-99.99,,,-99.99,,2013-02-08 21:12:00,
2013-02-08 15:22:00,63.0,-99.9,30.10,ENE,57,8.0,9.0,-999,-99.99,,,-99.99,,2013-02-08 21:22:00,
2013-02-08 15:33:00,63.0,-99.9,30.10,ENE,62,9.0,10.0,-999,-99.99,,,-99.99,,2013-02-08 21:33:00,
2013-02-08 15:42:00,63.0,-99.9,30.09,ENE,69,9.0,10.0,-999,-99.99,,,-99.99,,2013-02-08 21:42:00,
2013-02-08 15:52:00,63.0,-99.9,30.09,ENE,68,9.0,10.0,-999,-99.99,,,-99.99,,2013-02-08 21:52:00,
2013-02-08 16:02:00,63.0,-99.9,30.09,ENE,67,10.0,11.0,-999,-99.99,,,-99.99,,2013-02-08 22:02:00,
2013-02-08 16:12:00,63.0,-99.9,30.09,ENE,66,8.0,9.0,-999,-99.99,,,-99.99,,2013-02-08 22:12:00,
2013-02-08 16:22:00,63.0,-99.9,30.08,ENE,71,10.0,11.0,-999,-99.99,,,-99.99,,2013-02-08 22:22:00,
2013-02-08 16:32:00,63.0,-99.9,30.08,ENE,72,10.0,11.0,-999,-99.99,,,-99.99,,2013-02-08 22:32:00,
2013-02-08 16:42:00,63.0,-99.9,30.07,ENE,64,10.0,11.0,-999,-99.99,,,-99.99,,2013-02-08 22:42:00,
2013-02-08 16:52:00,63.0,-99.9,30.08,ENE,65,10.0,11.0,-999,-99.99,,,-99.99,,2013-02-08 22:52:00,
2013-02-08 17:02:00,63.0,-99.9,30.08,NE,52,10.0,11.0,-999,-99.99,,,-99.99,,2013-02-08 23:02:00,
2013-02-08 17:12:00,64.0,-99.9,30.08,NE,47,9.0,10.0,-999,-99.99,,,-99.99,,2013-02-08 23:12:00,
2013-02-08 17:22:00,64.0,-99.9,30.08,NE,44,10.0,11.0,-999,-99.99,,,-99.99,,2013-02-08 23:22:00,
2013-02-08 17:32:00,64.0,-99.9,30.08,NE,41,9.0,11.0,-999,-99.99,,,-99.99,,2013-02-08 23:32:00,
2013-02-08 17:42:00,64.0,-99.9,30.08,NE,44,10.0,11.0,-999,-99.99,,,-99.99,,2013-02-08 23:42:00,
2013-02-08 17:52:00,63.0,-99.9,30.08,NE,56,10.0,12.0,-999,-99.99,,,-99.99,,2013-02-08 23:52:00,
2013-02-08 18:02:00,63.0,-99.9,30.08,NE,56,12.0,13.0,-999,-99.99,,,-99.99,,2013-02-09 00:02:00,
2013-02-08 18:12:00,63.0,-99.9,30.08,NE,55,11.0,12.0,-999,-99.99,,,-99.99,,2013-02-09 00:12:00,
2013-02-08 18:22:00,63.0,-99.9,30.08,ENE,59,13.0,14.0,-999,-99.99,,,-99.99,,2013-02-09 00:22:00,
2013-02-08 18:32:00,63.0,-99.9,30.08,ENE,66,13.0,15.0,-999,-99.99,,,-99.99,,2013-02-09 00:32:00,
2013-02-08 18:42:00,63.0,-99.9,30.08,ENE,62,13.0,15.0,-999,-99.99,,,-99.99,,2013-02-09 00:42:00,
2013-02-08 18:52:00,63.0,-99.9,30.08,ENE,66,13.0,15.0,-999,-99.99,,,-99.99,,2013-02-09 00:52:00,
2013-02-08 19:02:00,63.0,-99.9,30.08,ENE,64,13.0,14.0,-999,-99.99,,,-99.99,,2013-02-09 01:02:00,
2013-02-08 19:12:00,63.0,-99.9,30.08,ENE,62,12.0,14.0,-999,-99.99,,,-99.99,,2013-02-09 01:12:00,
2013-02-08 19:22:00,63.0,-99.9,30.08,ENE,59,12.0,14.0,-999,-99.99,,,-99.99,,2013-02-09 01:22:00,
2013-02-08 19:32:00,63.0,-99.9,30.08,ENE,62,11.0,14.0,-999,-99.99,,,-99.99,,2013-02-09 01:32:00,
2013-02-08 19:42:00,63.0,-99.9,30.08,ENE,70,13.0,14.0,-999,-99.99,,,-99.99,,2013-02-09 01:42:00,
2013-02-08 19:52:00,63.0,-99.9,30.08,ENE,74,13.0,14.0,-999,-99.99,,,-99.99,,2013-02-09 01:52:00,
2013-02-08 20:02:00,63.0,-99.9,30.09,East,82,12.0,14.0,-999,-99.99,,,-99.99,,2013-02-09 02:02:00,
2013-02-08 20:11:00,63.0,-99.9,30.09,East,83,13.0,14.0,-999,-99.99,,,-99.99,,2013-02-09 02:11:00,
2013-02-08 20:22:00,63.0,-99.9,30.08,East,86,14.0,16.0,-999,-99.99,,,-99.99,,2013-02-09 02:22:00,
2013-02-08 20:32:00,63.0,-99.9,30.08,East,86,15.0,17.0,-999,-99.99,,,-99.99,,2013-02-09 02:32:00,
2013-02-08 20:42:00,63.0,-99.9,30.08,East,83,15.0,17.0,-999,-99.99,,,-99.99,,2013-02-09 02:42:00,
2013-02-08 20:53:00,63.0,-99.9,30.08,East,80,15.0,17.0,-999,-99.99,,,-99.99,,2013-02-09 02:53:00,
2013-02-08 21:02:00,63.0,-99.9,30.08,East,82,15.0,17.0,-999,-99.99,,,-99.99,,2013-02-09 03:02:00,
2013-02-08 21:11:00,63.0,-99.9,30.08,East,80,16.0,19.0,-999,-99.99,,,-99.99,,2013-02-09 03:11:00,
2013-02-08 21:22:00,63.0,-99.9,30.08,East,81,16.0,18.0,-999,-99.99,,,-99.99,,2013-02-09 03:22:00,
2013-02-08 21:32:00,63.0,-99.9,30.08,East,81,14.0,17.0,-999,-99.99,,,-99.99,,2013-02-09 03:32:00,
2013-02-08 21:42:00,63.0,-99.9,30.08,East,79,15.0,17.0,-999,-99.99,,,-99.99,,2013-02-09 03:42:00,
2013-02-08 21:53:00,63.0,-99.9,30.08,ENE,78,14.0,17.0,-999,-99.99,,,-99.99,,2013-02-09 03:53:00,
2013-02-08 22:03:00,63.0,-99.9,30.08,ENE,67,15.0,17.0,-999,-99.99,,,-99.99,,2013-02-09 04:03:00,
2013-02-08 22:12:00,63.0,-99.9,30.08,ENE,69,15.0,16.0,-999,-99.99,,,-99.99,,2013-02-09 04:12:00,
2013-02-08 22:24:00,63.0,-99.9,30.08,ENE,69,14.0,17.0,-999,-99.99,,,-99.99,,2013-02-09 04:24:00,
2013-02-08 22:32:00,63.0,-99.9,30.07,ENE,71,14.0,17.0,-999,-99.99,,,-99.99,,2013-02-09 04:32:00,
2013-02-08 22:43:00,63.0,-99.9,30.07,ENE,73,15.0,17.0,-999,-99.99,,,-99.99,,2013-02-09 04:43:00,
2013-02-08 22:52:00,64.0,-99.9,30.07,ENE,77,17.0,19.0,-999,-99.99,,,-99.99,,2013-02-09 04:52:00,
2013-02-08 23:02:00,64.0,-99.9,30.07,East,81,15.0,18.0,-999,-99.99,,,-99.99,,2013-02-09 05:02:00,
2013-02-08 23:12:00,64.0,-99.9,30.07,East,85,15.0,17.0,-999,-99.99,,,-99.99,,2013-02-09 05:12:00,
2013-02-08 23:22:00,64.0,-99.9,30.07,East,88,16.0,18.0,-999,-99.99,,,-99.99,,2013-02-09 05:22:00,
2013-02-08 23:32:00,64.0,-99.9,30.07,East,90,16.0,17.0,-999,-99.99,,,-99.99,,2013-02-09 05:32:00,
2013-02-08 23:42:00,64.0,-99.9,30.07,East,88,16.0,18.0,-999,-99.99,,,-99.99,,2013-02-09 05:42:00,
2013-02-08 23:52:00,64.0,-99.9,30.07,East,88,15.0,17.0,-999,-99.99,,,-99.99,,2013-02-09 05:52:00,